sensor_id;sensor_type;location;lat;lon;timestamp;P1;durP1;ratioP1;P2;durP2;ratioP2
64186;SDS011;50491;39.484;-8.540;2023-07-09T00:00:01;3.70;;;1.25;;
64186;SDS011;50491;39.484;-8.540;2023-07-09T00:02:21;10.73;;;2.38;;
64186;SDS011;50491;39.484;-8.540;2023-07-09T00:04:42;4.78;;;1.60;;
64186;SDS011;50491;39.484;-8.540;2023-07-09T00:07:02;10.15;;;2.38;;
64186;SDS011;50491;39.484;-8.540;2023-07-09T00:13:42;6.10;;;1.73;;
64186;SDS011;50491;39.484;-8.540;2023-07-09T00:15:43;5.45;;;1.40;;
64186;SDS011;50491;39.484;-8.540;2023-07-09T00:18:02;9.80;;;1.60;;
64186;SDS011;50491;39.484;-8.540;2023-07-09T00:20:22;7.25;;;1.60;;
64186;SDS011;50491;39.484;-8.540;2023-07-09T00:22:41;4.65;;;1.60;;
64186;SDS011;50491;39.484;-8.540;2023-07-09T00:24:52;5.97;;;1.95;;
64186;SDS011;50491;39.484;-8.540;2023-07-09T00:27:16;4.93;;;1.50;;
64186;SDS011;50491;39.484;-8.540;2023-07-09T00:29:18;6.85;;;1.50;;
64186;SDS011;50491;39.484;-8.540;2023-07-09T00:31:19;7.97;;;1.90;;
64186;SDS011;50491;39.484;-8.540;2023-07-09T00:33:20;6.78;;;1.77;;
64186;SDS011;50491;39.484;-8.540;2023-07-09T00:35:21;6.03;;;1.42;;
64186;SDS011;50491;39.484;-8.540;2023-07-09T00:37:23;7.63;;;2.78;;
64186;SDS011;50491;39.484;-8.540;2023-07-09T00:42:05;5.35;;;2.10;;
64186;SDS011;50491;39.484;-8.540;2023-07-09T00:44:30;2.78;;;1.40;;
64186;SDS011;50491;39.484;-8.540;2023-07-09T00:48:34;5.50;;;1.40;;
64186;SDS011;50491;39.484;-8.540;2023-07-09T00:50:53;8.45;;;1.80;;
64186;SDS011;50491;39.484;-8.540;2023-07-09T00:52:54;11.43;;;2.13;;
64186;SDS011;50491;39.484;-8.540;2023-07-09T00:54:57;6.68;;;2.08;;
64186;SDS011;50491;39.484;-8.540;2023-07-09T00:57:01;9.68;;;2.38;;
64186;SDS011;50491;39.484;-8.540;2023-07-09T00:59:25;8.70;;;2.25;;
64186;SDS011;50491;39.484;-8.540;2023-07-09T01:01:50;5.03;;;1.60;;
64186;SDS011;50491;39.484;-8.540;2023-07-09T01:04:09;4.43;;;1.40;;
64186;SDS011;50491;39.484;-8.540;2023-07-09T01:06:10;7.32;;;2.05;;
64186;SDS011;50491;39.484;-8.540;2023-07-09T01:08:13;3.47;;;1.40;;
64186;SDS011;50491;39.484;-8.540;2023-07-09T01:10:15;9.85;;;1.85;;
64186;SDS011;50491;39.484;-8.540;2023-07-09T01:12:35;12.35;;;2.38;;
64186;SDS011;50491;39.484;-8.540;2023-07-09T01:14:36;4.80;;;1.85;;
64186;SDS011;50491;39.484;-8.540;2023-07-09T01:16:57;3.05;;;1.38;;
64186;SDS011;50491;39.484;-8.540;2023-07-09T01:19:24;1.90;;;1.20;;
64186;SDS011;50491;39.484;-8.540;2023-07-09T01:21:44;3.08;;;1.58;;
64186;SDS011;50491;39.484;-8.540;2023-07-09T01:24:13;3.92;;;1.80;;
64186;SDS011;50491;39.484;-8.540;2023-07-09T01:26:33;12.80;;;2.22;;
64186;SDS011;50491;39.484;-8.540;2023-07-09T01:28:35;7.30;;;2.25;;
64186;SDS011;50491;39.484;-8.540;2023-07-09T01:30:54;6.90;;;2.38;;
64186;SDS011;50491;39.484;-8.540;2023-07-09T01:32:57;8.55;;;2.20;;
64186;SDS011;50491;39.484;-8.540;2023-07-09T01:35:18;9.05;;;1.80;;
64186;SDS011;50491;39.484;-8.540;2023-07-09T01:37:24;5.90;;;1.55;;
64186;SDS011;50491;39.484;-8.540;2023-07-09T01:39:26;4.30;;;2.20;;
64186;SDS011;50491;39.484;-8.540;2023-07-09T01:41:32;9.65;;;2.22;;
64186;SDS011;50491;39.484;-8.540;2023-07-09T01:43:53;6.47;;;1.58;;
64186;SDS011;50491;39.484;-8.540;2023-07-09T01:48:51;6.22;;;1.67;;
64186;SDS011;50491;39.484;-8.540;2023-07-09T01:51:11;4.03;;;1.65;;
64186;SDS011;50491;39.484;-8.540;2023-07-09T01:53:46;6.43;;;1.77;;
64186;SDS011;50491;39.484;-8.540;2023-07-09T01:55:47;6.75;;;2.20;;
64186;SDS011;50491;39.484;-8.540;2023-07-09T02:13:47;7.13;;;2.92;;
64186;SDS011;50491;39.484;-8.540;2023-07-09T02:16:06;5.40;;;1.98;;
64186;SDS011;50491;39.484;-8.540;2023-07-09T02:21:03;7.90;;;2.03;;
64186;SDS011;50491;39.484;-8.540;2023-07-09T02:23:04;9.35;;;2.05;;
64186;SDS011;50491;39.484;-8.540;2023-07-09T02:25:23;11.48;;;2.03;;
64186;SDS011;50491;39.484;-8.540;2023-07-09T02:27:23;6.30;;;1.85;;
64186;SDS011;50491;39.484;-8.540;2023-07-09T02:29:42;11.77;;;2.00;;
64186;SDS011;50491;39.484;-8.540;2023-07-09T02:32:02;9.45;;;2.40;;
64186;SDS011;50491;39.484;-8.540;2023-07-09T02:34:04;5.90;;;1.67;;
64186;SDS011;50491;39.484;-8.540;2023-07-09T02:44:41;8.10;;;1.70;;
64186;SDS011;50491;39.484;-8.540;2023-07-09T02:47:00;13.93;;;2.58;;
64186;SDS011;50491;39.484;-8.540;2023-07-09T02:49:05;2.63;;;1.55;;
64186;SDS011;50491;39.484;-8.540;2023-07-09T02:51:07;12.48;;;2.75;;
64186;SDS011;50491;39.484;-8.540;2023-07-09T02:53:08;8.07;;;1.98;;
64186;SDS011;50491;39.484;-8.540;2023-07-09T02:55:14;11.15;;;1.98;;
64186;SDS011;50491;39.484;-8.540;2023-07-09T02:57:20;5.32;;;1.85;;
64186;SDS011;50491;39.484;-8.540;2023-07-09T02:59:21;10.30;;;2.00;;
64186;SDS011;50491;39.484;-8.540;2023-07-09T03:01:40;6.80;;;1.77;;
64186;SDS011;50491;39.484;-8.540;2023-07-09T03:03:41;6.30;;;2.00;;
64186;SDS011;50491;39.484;-8.540;2023-07-09T03:06:00;5.97;;;2.13;;
64186;SDS011;50491;39.484;-8.540;2023-07-09T03:08:19;9.63;;;2.10;;
64186;SDS011;50491;39.484;-8.540;2023-07-09T03:10:38;9.07;;;2.03;;
64186;SDS011;50491;39.484;-8.540;2023-07-09T03:12:39;8.43;;;2.53;;
64186;SDS011;50491;39.484;-8.540;2023-07-09T03:14:40;10.95;;;3.42;;
64186;SDS011;50491;39.484;-8.540;2023-07-09T03:16:40;5.88;;;1.70;;
64186;SDS011;50491;39.484;-8.540;2023-07-09T03:21:31;9.40;;;2.17;;
64186;SDS011;50491;39.484;-8.540;2023-07-09T03:23:32;6.47;;;2.10;;
64186;SDS011;50491;39.484;-8.540;2023-07-09T03:28:48;7.07;;;2.22;;
64186;SDS011;50491;39.484;-8.540;2023-07-09T03:33:39;9.02;;;1.83;;
64186;SDS011;50491;39.484;-8.540;2023-07-09T03:35:39;8.60;;;2.03;;
64186;SDS011;50491;39.484;-8.540;2023-07-09T03:43:21;9.32;;;2.58;;
64186;SDS011;50491;39.484;-8.540;2023-07-09T03:45:23;6.28;;;1.92;;
64186;SDS011;50491;39.484;-8.540;2023-07-09T03:52:22;15.77;;;2.90;;
64186;SDS011;50491;39.484;-8.540;2023-07-09T03:54:22;10.15;;;2.10;;
64186;SDS011;50491;39.484;-8.540;2023-07-09T03:56:23;4.82;;;2.10;;
64186;SDS011;50491;39.484;-8.540;2023-07-09T03:58:23;17.75;;;3.90;;
64186;SDS011;50491;39.484;-8.540;2023-07-09T04:00:42;6.95;;;2.38;;
64186;SDS011;50491;39.484;-8.540;2023-07-09T04:02:43;11.32;;;1.90;;
64186;SDS011;50491;39.484;-8.540;2023-07-09T04:09:41;14.77;;;2.60;;
64186;SDS011;50491;39.484;-8.540;2023-07-09T04:14:20;4.30;;;1.50;;
64186;SDS011;50491;39.484;-8.540;2023-07-09T04:16:39;9.15;;;2.38;;
64186;SDS011;50491;39.484;-8.540;2023-07-09T04:21:24;7.28;;;2.67;;
64186;SDS011;50491;39.484;-8.540;2023-07-09T04:23:25;5.53;;;2.20;;
64186;SDS011;50491;39.484;-8.540;2023-07-09T04:25:44;8.43;;;2.40;;
64186;SDS011;50491;39.484;-8.540;2023-07-09T04:30:22;8.55;;;2.70;;
64186;SDS011;50491;39.484;-8.540;2023-07-09T04:32:45;7.15;;;2.13;;
64186;SDS011;50491;39.484;-8.540;2023-07-09T04:35:04;8.43;;;2.78;;
64186;SDS011;50491;39.484;-8.540;2023-07-09T04:37:27;11.88;;;3.08;;
64186;SDS011;50491;39.484;-8.540;2023-07-09T04:44:26;8.35;;;2.20;;
64186;SDS011;50491;39.484;-8.540;2023-07-09T04:49:05;7.15;;;2.25;;
64186;SDS011;50491;39.484;-8.540;2023-07-09T04:51:06;11.10;;;2.75;;
64186;SDS011;50491;39.484;-8.540;2023-07-09T04:53:07;9.50;;;1.95;;
64186;SDS011;50491;39.484;-8.540;2023-07-09T04:55:26;5.55;;;2.58;;
64186;SDS011;50491;39.484;-8.540;2023-07-09T04:57:27;8.25;;;2.97;;
64186;SDS011;50491;39.484;-8.540;2023-07-09T04:59:46;6.95;;;2.28;;
64186;SDS011;50491;39.484;-8.540;2023-07-09T05:09:29;12.98;;;3.38;;
64186;SDS011;50491;39.484;-8.540;2023-07-09T05:14:51;7.93;;;2.38;;
64186;SDS011;50491;39.484;-8.540;2023-07-09T05:17:10;20.10;;;2.85;;
64186;SDS011;50491;39.484;-8.540;2023-07-09T05:27:50;6.47;;;2.70;;
64186;SDS011;50491;39.484;-8.540;2023-07-09T05:29:51;5.70;;;2.70;;
64186;SDS011;50491;39.484;-8.540;2023-07-09T05:31:52;7.47;;;2.33;;
64186;SDS011;50491;39.484;-8.540;2023-07-09T05:33:53;11.27;;;2.20;;
64186;SDS011;50491;39.484;-8.540;2023-07-09T05:38:51;8.93;;;2.30;;
64186;SDS011;50491;39.484;-8.540;2023-07-09T05:41:02;12.57;;;2.63;;
64186;SDS011;50491;39.484;-8.540;2023-07-09T05:43:04;6.15;;;2.50;;
64186;SDS011;50491;39.484;-8.540;2023-07-09T05:45:05;9.07;;;2.90;;
64186;SDS011;50491;39.484;-8.540;2023-07-09T05:47:24;12.93;;;3.05;;
64186;SDS011;50491;39.484;-8.540;2023-07-09T05:49:25;11.07;;;2.22;;
64186;SDS011;50491;39.484;-8.540;2023-07-09T05:51:26;7.82;;;2.00;;
64186;SDS011;50491;39.484;-8.540;2023-07-09T05:53:27;5.13;;;2.03;;
64186;SDS011;50491;39.484;-8.540;2023-07-09T05:55:27;9.23;;;3.15;;
64186;SDS011;50491;39.484;-8.540;2023-07-09T05:57:28;8.15;;;2.05;;
64186;SDS011;50491;39.484;-8.540;2023-07-09T05:59:28;4.82;;;1.98;;
64186;SDS011;50491;39.484;-8.540;2023-07-09T06:01:29;11.50;;;2.83;;
64186;SDS011;50491;39.484;-8.540;2023-07-09T06:03:30;8.20;;;2.25;;
64186;SDS011;50491;39.484;-8.540;2023-07-09T06:05:31;9.00;;;2.10;;
64186;SDS011;50491;39.484;-8.540;2023-07-09T06:07:50;8.10;;;3.10;;
64186;SDS011;50491;39.484;-8.540;2023-07-09T06:09:51;6.15;;;2.45;;
64186;SDS011;50491;39.484;-8.540;2023-07-09T06:11:52;9.63;;;2.13;;
64186;SDS011;50491;39.484;-8.540;2023-07-09T06:14:18;6.95;;;2.30;;
64186;SDS011;50491;39.484;-8.540;2023-07-09T06:16:37;7.45;;;2.80;;
64186;SDS011;50491;39.484;-8.540;2023-07-09T06:18:38;4.07;;;2.20;;
64186;SDS011;50491;39.484;-8.540;2023-07-09T06:20:50;10.23;;;2.72;;
64186;SDS011;50491;39.484;-8.540;2023-07-09T06:23:10;10.82;;;2.38;;
64186;SDS011;50491;39.484;-8.540;2023-07-09T06:25:10;12.00;;;2.28;;
64186;SDS011;50491;39.484;-8.540;2023-07-09T06:27:31;8.40;;;2.67;;
64186;SDS011;50491;39.484;-8.540;2023-07-09T06:29:31;5.45;;;2.15;;
64186;SDS011;50491;39.484;-8.540;2023-07-09T06:31:50;8.77;;;2.97;;
64186;SDS011;50491;39.484;-8.540;2023-07-09T06:34:10;13.40;;;2.58;;
64186;SDS011;50491;39.484;-8.540;2023-07-09T06:36:29;6.95;;;1.85;;
64186;SDS011;50491;39.484;-8.540;2023-07-09T06:38:30;6.25;;;2.00;;
64186;SDS011;50491;39.484;-8.540;2023-07-09T06:40:30;5.47;;;1.95;;
64186;SDS011;50491;39.484;-8.540;2023-07-09T06:42:31;8.02;;;1.75;;
64186;SDS011;50491;39.484;-8.540;2023-07-09T06:44:50;8.85;;;2.05;;
64186;SDS011;50491;39.484;-8.540;2023-07-09T06:47:09;4.47;;;1.83;;
64186;SDS011;50491;39.484;-8.540;2023-07-09T06:49:28;8.00;;;2.45;;
64186;SDS011;50491;39.484;-8.540;2023-07-09T06:54:34;7.80;;;1.80;;
64186;SDS011;50491;39.484;-8.540;2023-07-09T06:56:39;4.50;;;2.05;;
64186;SDS011;50491;39.484;-8.540;2023-07-09T06:58:40;8.45;;;2.92;;
64186;SDS011;50491;39.484;-8.540;2023-07-09T07:01:03;6.40;;;2.25;;
64186;SDS011;50491;39.484;-8.540;2023-07-09T07:06:00;5.93;;;1.70;;
64186;SDS011;50491;39.484;-8.540;2023-07-09T07:10:59;4.40;;;2.08;;
64186;SDS011;50491;39.484;-8.540;2023-07-09T07:13:03;8.45;;;1.90;;
64186;SDS011;50491;39.484;-8.540;2023-07-09T07:15:29;4.95;;;2.10;;
64186;SDS011;50491;39.484;-8.540;2023-07-09T07:22:27;6.40;;;1.45;;
64186;SDS011;50491;39.484;-8.540;2023-07-09T07:24:53;7.10;;;1.77;;
64186;SDS011;50491;39.484;-8.540;2023-07-09T07:32:36;4.30;;;1.80;;
64186;SDS011;50491;39.484;-8.540;2023-07-09T07:34:38;6.20;;;1.90;;
64186;SDS011;50491;39.484;-8.540;2023-07-09T07:36:58;6.80;;;2.60;;
64186;SDS011;50491;39.484;-8.540;2023-07-09T07:43:56;5.28;;;1.63;;
64186;SDS011;50491;39.484;-8.540;2023-07-09T07:45:56;7.47;;;2.00;;
64186;SDS011;50491;39.484;-8.540;2023-07-09T07:47:57;8.38;;;1.88;;
64186;SDS011;50491;39.484;-8.540;2023-07-09T07:49:58;6.20;;;1.48;;
64186;SDS011;50491;39.484;-8.540;2023-07-09T07:51:58;9.30;;;2.83;;
64186;SDS011;50491;39.484;-8.540;2023-07-09T07:53:59;6.28;;;1.60;;
64186;SDS011;50491;39.484;-8.540;2023-07-09T07:56:00;6.28;;;1.70;;
64186;SDS011;50491;39.484;-8.540;2023-07-09T07:58:21;4.63;;;1.80;;
64186;SDS011;50491;39.484;-8.540;2023-07-09T08:00:47;7.00;;;1.63;;
64186;SDS011;50491;39.484;-8.540;2023-07-09T08:02:53;4.65;;;1.70;;
64186;SDS011;50491;39.484;-8.540;2023-07-09T08:04:54;3.65;;;1.33;;
64186;SDS011;50491;39.484;-8.540;2023-07-09T08:07:13;9.82;;;1.60;;
64186;SDS011;50491;39.484;-8.540;2023-07-09T08:09:14;3.22;;;1.55;;
64186;SDS011;50491;39.484;-8.540;2023-07-09T08:11:34;6.70;;;1.23;;
64186;SDS011;50491;39.484;-8.540;2023-07-09T08:13:53;10.10;;;1.70;;
64186;SDS011;50491;39.484;-8.540;2023-07-09T08:16:19;8.57;;;1.80;;
64186;SDS011;50491;39.484;-8.540;2023-07-09T08:18:25;8.10;;;1.60;;
64186;SDS011;50491;39.484;-8.540;2023-07-09T08:20:31;2.42;;;1.10;;
64186;SDS011;50491;39.484;-8.540;2023-07-09T08:22:33;5.65;;;1.75;;
64186;SDS011;50491;39.484;-8.540;2023-07-09T08:24:59;4.65;;;1.65;;
64186;SDS011;50491;39.484;-8.540;2023-07-09T08:27:25;5.43;;;1.50;;
64186;SDS011;50491;39.484;-8.540;2023-07-09T08:29:44;6.22;;;1.48;;
64186;SDS011;50491;39.484;-8.540;2023-07-09T08:32:03;2.85;;;1.20;;
64186;SDS011;50491;39.484;-8.540;2023-07-09T08:34:05;4.47;;;1.20;;
64186;SDS011;50491;39.484;-8.540;2023-07-09T08:36:25;6.93;;;1.50;;
64186;SDS011;50491;39.484;-8.540;2023-07-09T08:38:26;6.65;;;1.95;;
64186;SDS011;50491;39.484;-8.540;2023-07-09T08:40:59;5.88;;;1.35;;
64186;SDS011;50491;39.484;-8.540;2023-07-09T08:43:24;6.57;;;1.83;;
64186;SDS011;50491;39.484;-8.540;2023-07-09T08:46:27;7.20;;;1.50;;
64186;SDS011;50491;39.484;-8.540;2023-07-09T08:57:14;6.13;;;1.58;;
64186;SDS011;50491;39.484;-8.540;2023-07-09T09:01:57;3.40;;;1.42;;
64186;SDS011;50491;39.484;-8.540;2023-07-09T09:04:35;5.72;;;1.40;;
64186;SDS011;50491;39.484;-8.540;2023-07-09T09:10:00;5.38;;;1.35;;
64186;SDS011;50491;39.484;-8.540;2023-07-09T09:14:33;6.95;;;1.20;;
64186;SDS011;50491;39.484;-8.540;2023-07-09T09:16:53;5.85;;;1.05;;
64186;SDS011;50491;39.484;-8.540;2023-07-09T09:18:55;5.10;;;1.35;;
64186;SDS011;50491;39.484;-8.540;2023-07-09T09:21:23;8.80;;;1.67;;
64186;SDS011;50491;39.484;-8.540;2023-07-09T09:23:36;2.95;;;1.02;;
64186;SDS011;50491;39.484;-8.540;2023-07-09T09:26:17;4.43;;;0.95;;
64186;SDS011;50491;39.484;-8.540;2023-07-09T09:28:40;4.00;;;1.00;;
64186;SDS011;50491;39.484;-8.540;2023-07-09T09:30:41;2.47;;;1.20;;
64186;SDS011;50491;39.484;-8.540;2023-07-09T09:32:43;5.15;;;1.10;;
64186;SDS011;50491;39.484;-8.540;2023-07-09T09:34:45;4.13;;;1.52;;
64186;SDS011;50491;39.484;-8.540;2023-07-09T09:36:45;3.20;;;0.90;;
64186;SDS011;50491;39.484;-8.540;2023-07-09T09:39:05;3.22;;;1.20;;
64186;SDS011;50491;39.484;-8.540;2023-07-09T09:41:31;2.42;;;0.85;;
64186;SDS011;50491;39.484;-8.540;2023-07-09T09:43:34;6.70;;;1.20;;
64186;SDS011;50491;39.484;-8.540;2023-07-09T09:45:38;5.70;;;1.02;;
64186;SDS011;50491;39.484;-8.540;2023-07-09T09:47:39;3.42;;;1.00;;
64186;SDS011;50491;39.484;-8.540;2023-07-09T09:49:40;4.07;;;1.00;;
64186;SDS011;50491;39.484;-8.540;2023-07-09T09:52:01;8.02;;;2.45;;
64186;SDS011;50491;39.484;-8.540;2023-07-09T09:54:24;1.77;;;0.95;;
64186;SDS011;50491;39.484;-8.540;2023-07-09T09:56:31;3.40;;;1.00;;
64186;SDS011;50491;39.484;-8.540;2023-07-09T09:58:39;2.65;;;0.88;;
64186;SDS011;50491;39.484;-8.540;2023-07-09T10:00:46;4.78;;;1.10;;
64186;SDS011;50491;39.484;-8.540;2023-07-09T10:02:49;5.28;;;1.20;;
64186;SDS011;50491;39.484;-8.540;2023-07-09T10:04:50;7.00;;;1.33;;
64186;SDS011;50491;39.484;-8.540;2023-07-09T10:06:53;2.85;;;0.80;;
64186;SDS011;50491;39.484;-8.540;2023-07-09T10:09:04;2.45;;;1.27;;
64186;SDS011;50491;39.484;-8.540;2023-07-09T10:11:31;1.33;;;0.77;;
64186;SDS011;50491;39.484;-8.540;2023-07-09T10:13:55;2.13;;;1.13;;
64186;SDS011;50491;39.484;-8.540;2023-07-09T10:16:19;6.45;;;1.67;;
64186;SDS011;50491;39.484;-8.540;2023-07-09T10:20:43;3.63;;;1.30;;
64186;SDS011;50491;39.484;-8.540;2023-07-09T10:28:04;2.40;;;0.85;;
64186;SDS011;50491;39.484;-8.540;2023-07-09T10:31:01;5.53;;;1.80;;
64186;SDS011;50491;39.484;-8.540;2023-07-09T10:33:06;2.15;;;0.80;;
64186;SDS011;50491;39.484;-8.540;2023-07-09T10:35:37;4.80;;;1.13;;
64186;SDS011;50491;39.484;-8.540;2023-07-09T10:39:56;5.13;;;1.17;;
64186;SDS011;50491;39.484;-8.540;2023-07-09T10:41:59;3.70;;;0.90;;
64186;SDS011;50491;39.484;-8.540;2023-07-09T10:44:29;1.25;;;0.50;;
64186;SDS011;50491;39.484;-8.540;2023-07-09T10:49:30;3.83;;;0.90;;
64186;SDS011;50491;39.484;-8.540;2023-07-09T10:51:59;4.30;;;1.50;;
64186;SDS011;50491;39.484;-8.540;2023-07-09T10:54:15;1.33;;;0.93;;
64186;SDS011;50491;39.484;-8.540;2023-07-09T11:06:36;3.28;;;1.23;;
64186;SDS011;50491;39.484;-8.540;2023-07-09T11:11:43;2.78;;;1.30;;
64186;SDS011;50491;39.484;-8.540;2023-07-09T11:13:47;2.88;;;1.52;;
64186;SDS011;50491;39.484;-8.540;2023-07-09T11:15:53;2.72;;;1.20;;
64186;SDS011;50491;39.484;-8.540;2023-07-09T11:17:57;9.75;;;1.02;;
64186;SDS011;50491;39.484;-8.540;2023-07-09T11:22:43;5.82;;;1.65;;
64186;SDS011;50491;39.484;-8.540;2023-07-09T11:27:50;3.03;;;1.10;;
64186;SDS011;50491;39.484;-8.540;2023-07-09T11:30:02;4.53;;;1.73;;
64186;SDS011;50491;39.484;-8.540;2023-07-09T11:32:44;3.05;;;0.88;;
64186;SDS011;50491;39.484;-8.540;2023-07-09T11:34:45;2.55;;;1.17;;
64186;SDS011;50491;39.484;-8.540;2023-07-09T11:36:51;3.22;;;1.17;;
64186;SDS011;50491;39.484;-8.540;2023-07-09T11:39:17;2.17;;;1.05;;
64186;SDS011;50491;39.484;-8.540;2023-07-09T11:44:44;3.83;;;1.40;;
64186;SDS011;50491;39.484;-8.540;2023-07-09T11:50:02;3.97;;;1.05;;
64186;SDS011;50491;39.484;-8.540;2023-07-09T11:52:06;3.05;;;1.33;;
64186;SDS011;50491;39.484;-8.540;2023-07-09T11:54:10;4.80;;;1.00;;
64186;SDS011;50491;39.484;-8.540;2023-07-09T11:56:32;3.35;;;0.90;;
64186;SDS011;50491;39.484;-8.540;2023-07-09T11:58:32;3.33;;;1.33;;
64186;SDS011;50491;39.484;-8.540;2023-07-09T12:00:37;6.28;;;1.48;;
64186;SDS011;50491;39.484;-8.540;2023-07-09T12:02:39;2.95;;;1.00;;
64186;SDS011;50491;39.484;-8.540;2023-07-09T12:04:40;2.70;;;0.90;;
64186;SDS011;50491;39.484;-8.540;2023-07-09T12:07:00;3.80;;;1.10;;
64186;SDS011;50491;39.484;-8.540;2023-07-09T12:09:20;3.58;;;1.27;;
64186;SDS011;50491;39.484;-8.540;2023-07-09T12:11:28;3.28;;;1.23;;
64186;SDS011;50491;39.484;-8.540;2023-07-09T12:16:19;3.17;;;0.95;;
64186;SDS011;50491;39.484;-8.540;2023-07-09T12:19:04;4.95;;;1.52;;
64186;SDS011;50491;39.484;-8.540;2023-07-09T12:21:05;0.98;;;0.80;;
64186;SDS011;50491;39.484;-8.540;2023-07-09T12:26:05;1.50;;;0.98;;
64186;SDS011;50491;39.484;-8.540;2023-07-09T12:28:12;3.72;;;1.08;;
64186;SDS011;50491;39.484;-8.540;2023-07-09T12:30:14;2.58;;;1.20;;
64186;SDS011;50491;39.484;-8.540;2023-07-09T12:32:33;3.10;;;1.20;;
64186;SDS011;50491;39.484;-8.540;2023-07-09T12:35:04;1.92;;;0.85;;
64186;SDS011;50491;39.484;-8.540;2023-07-09T12:37:24;1.55;;;0.98;;
64186;SDS011;50491;39.484;-8.540;2023-07-09T12:39:32;5.05;;;1.42;;
64186;SDS011;50491;39.484;-8.540;2023-07-09T12:42:02;3.85;;;1.00;;
64186;SDS011;50491;39.484;-8.540;2023-07-09T12:44:03;2.95;;;0.93;;
64186;SDS011;50491;39.484;-8.540;2023-07-09T12:46:04;6.90;;;1.35;;
64186;SDS011;50491;39.484;-8.540;2023-07-09T12:48:29;4.22;;;1.70;;
64186;SDS011;50491;39.484;-8.540;2023-07-09T12:50:31;4.63;;;1.13;;
64186;SDS011;50491;39.484;-8.540;2023-07-09T13:00:50;7.10;;;1.30;;
64186;SDS011;50491;39.484;-8.540;2023-07-09T13:03:12;3.25;;;1.30;;
64186;SDS011;50491;39.484;-8.540;2023-07-09T13:07:53;4.80;;;1.15;;
64186;SDS011;50491;39.484;-8.540;2023-07-09T13:10:05;4.93;;;0.98;;
64186;SDS011;50491;39.484;-8.540;2023-07-09T13:12:16;3.83;;;0.93;;
64186;SDS011;50491;39.484;-8.540;2023-07-09T13:14:26;2.95;;;1.10;;
64186;SDS011;50491;39.484;-8.540;2023-07-09T13:16:49;1.38;;;1.10;;
64186;SDS011;50491;39.484;-8.540;2023-07-09T13:18:50;2.72;;;1.00;;
64186;SDS011;50491;39.484;-8.540;2023-07-09T13:20:51;2.40;;;1.15;;
64186;SDS011;50491;39.484;-8.540;2023-07-09T13:25:40;8.32;;;2.45;;
64186;SDS011;50491;39.484;-8.540;2023-07-09T13:30:57;2.45;;;1.15;;
64186;SDS011;50491;39.484;-8.540;2023-07-09T13:33:26;5.85;;;2.08;;
64186;SDS011;50491;39.484;-8.540;2023-07-09T13:35:27;3.97;;;1.45;;
64186;SDS011;50491;39.484;-8.540;2023-07-09T13:37:27;2.50;;;1.27;;
64186;SDS011;50491;39.484;-8.540;2023-07-09T13:39:28;3.15;;;1.15;;
64186;SDS011;50491;39.484;-8.540;2023-07-09T13:44:14;2.33;;;1.73;;
64186;SDS011;50491;39.484;-8.540;2023-07-09T13:46:17;3.78;;;1.42;;
64186;SDS011;50491;39.484;-8.540;2023-07-09T13:48:37;3.42;;;1.52;;
64186;SDS011;50491;39.484;-8.540;2023-07-09T13:50:57;2.67;;;1.10;;
64186;SDS011;50491;39.484;-8.540;2023-07-09T13:52:59;3.13;;;1.40;;
64186;SDS011;50491;39.484;-8.540;2023-07-09T13:54:59;2.03;;;0.90;;
64186;SDS011;50491;39.484;-8.540;2023-07-09T13:57:19;3.78;;;0.93;;
64186;SDS011;50491;39.484;-8.540;2023-07-09T13:59:22;2.92;;;1.17;;
64186;SDS011;50491;39.484;-8.540;2023-07-09T14:01:43;4.70;;;1.02;;
64186;SDS011;50491;39.484;-8.540;2023-07-09T14:04:02;4.18;;;1.50;;
64186;SDS011;50491;39.484;-8.540;2023-07-09T14:06:23;3.28;;;1.23;;
64186;SDS011;50491;39.484;-8.540;2023-07-09T14:08:24;3.60;;;1.27;;
64186;SDS011;50491;39.484;-8.540;2023-07-09T14:10:25;5.85;;;1.60;;
64186;SDS011;50491;39.484;-8.540;2023-07-09T14:12:44;3.47;;;1.60;;
64186;SDS011;50491;39.484;-8.540;2023-07-09T14:15:05;4.85;;;1.50;;
64186;SDS011;50491;39.484;-8.540;2023-07-09T14:17:30;2.92;;;1.27;;
64186;SDS011;50491;39.484;-8.540;2023-07-09T14:19:31;3.92;;;1.10;;
64186;SDS011;50491;39.484;-8.540;2023-07-09T14:21:32;3.05;;;1.15;;
64186;SDS011;50491;39.484;-8.540;2023-07-09T14:23:32;8.88;;;1.60;;
64186;SDS011;50491;39.484;-8.540;2023-07-09T14:25:33;2.85;;;1.25;;
64186;SDS011;50491;39.484;-8.540;2023-07-09T14:27:34;2.15;;;1.35;;
64186;SDS011;50491;39.484;-8.540;2023-07-09T14:29:34;2.85;;;1.13;;
64186;SDS011;50491;39.484;-8.540;2023-07-09T14:31:53;3.38;;;1.20;;
64186;SDS011;50491;39.484;-8.540;2023-07-09T14:33:54;3.30;;;1.38;;
64186;SDS011;50491;39.484;-8.540;2023-07-09T14:36:15;5.50;;;1.20;;
64186;SDS011;50491;39.484;-8.540;2023-07-09T14:38:34;2.00;;;1.00;;
64186;SDS011;50491;39.484;-8.540;2023-07-09T14:40:35;3.75;;;1.38;;
64186;SDS011;50491;39.484;-8.540;2023-07-09T14:42:37;16.27;;;1.65;;
64186;SDS011;50491;39.484;-8.540;2023-07-09T14:44:39;3.78;;;0.95;;
64186;SDS011;50491;39.484;-8.540;2023-07-09T14:46:40;7.53;;;1.08;;
64186;SDS011;50491;39.484;-8.540;2023-07-09T14:48:40;4.85;;;1.17;;
64186;SDS011;50491;39.484;-8.540;2023-07-09T14:54:04;4.28;;;1.33;;
64186;SDS011;50491;39.484;-8.540;2023-07-09T14:59:33;6.15;;;1.30;;
64186;SDS011;50491;39.484;-8.540;2023-07-09T15:01:33;3.80;;;0.98;;
64186;SDS011;50491;39.484;-8.540;2023-07-09T15:03:52;3.83;;;1.02;;
64186;SDS011;50491;39.484;-8.540;2023-07-09T15:12:12;5.25;;;1.20;;
64186;SDS011;50491;39.484;-8.540;2023-07-09T15:14:35;2.97;;;1.02;;
64186;SDS011;50491;39.484;-8.540;2023-07-09T15:18:55;4.00;;;0.73;;
64186;SDS011;50491;39.484;-8.540;2023-07-09T15:21:14;3.95;;;1.33;;
64186;SDS011;50491;39.484;-8.540;2023-07-09T15:32:32;4.28;;;1.13;;
64186;SDS011;50491;39.484;-8.540;2023-07-09T15:34:50;3.97;;;1.10;;
64186;SDS011;50491;39.484;-8.540;2023-07-09T15:37:13;3.42;;;0.70;;
64186;SDS011;50491;39.484;-8.540;2023-07-09T15:39:34;5.10;;;1.67;;
64186;SDS011;50491;39.484;-8.540;2023-07-09T15:41:35;5.40;;;1.00;;
64186;SDS011;50491;39.484;-8.540;2023-07-09T15:43:36;3.22;;;1.40;;
64186;SDS011;50491;39.484;-8.540;2023-07-09T15:48:33;3.03;;;1.30;;
64186;SDS011;50491;39.484;-8.540;2023-07-09T15:50:35;3.47;;;0.60;;
64186;SDS011;50491;39.484;-8.540;2023-07-09T15:56:18;2.95;;;0.93;;
64186;SDS011;50491;39.484;-8.540;2023-07-09T15:58:42;3.85;;;1.63;;
64186;SDS011;50491;39.484;-8.540;2023-07-09T16:01:02;6.90;;;1.25;;
64186;SDS011;50491;39.484;-8.540;2023-07-09T16:03:43;3.33;;;1.05;;
64186;SDS011;50491;39.484;-8.540;2023-07-09T16:06:13;2.75;;;0.77;;
64186;SDS011;50491;39.484;-8.540;2023-07-09T16:08:33;3.15;;;0.80;;
64186;SDS011;50491;39.484;-8.540;2023-07-09T16:12:53;4.90;;;1.15;;
64186;SDS011;50491;39.484;-8.540;2023-07-09T16:14:54;5.97;;;1.30;;
64186;SDS011;50491;39.484;-8.540;2023-07-09T16:22:11;4.63;;;1.08;;
64186;SDS011;50491;39.484;-8.540;2023-07-09T16:27:20;3.03;;;0.82;;
64186;SDS011;50491;39.484;-8.540;2023-07-09T16:29:39;3.53;;;0.88;;
64186;SDS011;50491;39.484;-8.540;2023-07-09T16:31:39;6.82;;;1.10;;
64186;SDS011;50491;39.484;-8.540;2023-07-09T16:33:59;4.22;;;1.15;;
64186;SDS011;50491;39.484;-8.540;2023-07-09T16:36:18;4.28;;;0.90;;
64186;SDS011;50491;39.484;-8.540;2023-07-09T16:38:37;3.67;;;0.75;;
64186;SDS011;50491;39.484;-8.540;2023-07-09T16:40:56;3.47;;;0.88;;
64186;SDS011;50491;39.484;-8.540;2023-07-09T16:42:58;3.50;;;0.88;;
64186;SDS011;50491;39.484;-8.540;2023-07-09T16:45:27;3.72;;;0.85;;
64186;SDS011;50491;39.484;-8.540;2023-07-09T16:47:28;4.88;;;1.00;;
64186;SDS011;50491;39.484;-8.540;2023-07-09T16:49:36;4.10;;;0.88;;
64186;SDS011;50491;39.484;-8.540;2023-07-09T16:51:58;7.20;;;1.17;;
64186;SDS011;50491;39.484;-8.540;2023-07-09T16:53:59;2.80;;;0.98;;
64186;SDS011;50491;39.484;-8.540;2023-07-09T16:56:03;1.70;;;0.60;;
64186;SDS011;50491;39.484;-8.540;2023-07-09T16:58:04;2.75;;;0.80;;
64186;SDS011;50491;39.484;-8.540;2023-07-09T17:05:00;3.45;;;0.70;;